createdAt,value
2018-01-14T00:00:51.457Z,5.50
2018-01-14T00:03:18.917Z,5.50
2018-01-14T00:05:46.352Z,5.50
2018-01-14T00:08:13.811Z,5.50
2018-01-14T00:10:41.244Z,5.40
2018-01-14T00:13:08.685Z,5.40
2018-01-14T00:15:36.154Z,5.40
2018-01-14T00:18:03.780Z,5.40
2018-01-14T00:20:31.240Z,5.40
2018-01-14T00:22:58.705Z,5.40
2018-01-14T00:25:26.149Z,5.40
2018-01-14T00:27:53.604Z,5.40
2018-01-14T00:30:21.048Z,5.40
2018-01-14T00:32:48.488Z,5.30
2018-01-14T00:35:15.947Z,5.30
2018-01-14T00:37:44.166Z,5.30
2018-01-14T00:40:11.639Z,5.30
2018-01-14T00:42:39.087Z,5.30
2018-01-14T00:45:06.559Z,5.30
2018-01-14T00:47:34.013Z,5.30
2018-01-14T00:50:08.245Z,5.30
2018-01-14T00:52:35.688Z,5.20
2018-01-14T00:55:03.156Z,5.20
2018-01-14T00:57:30.580Z,5.20
2018-01-14T00:59:58.039Z,5.20
2018-01-14T01:02:25.485Z,5.20
2018-01-14T01:04:53.149Z,5.10
2018-01-14T01:07:20.597Z,5.10
2018-01-14T01:09:48.036Z,5.10
2018-01-14T01:12:15.484Z,5.10
2018-01-14T01:14:42.947Z,5.10
2018-01-14T01:17:10.726Z,5.10
2018-01-14T01:19:38.156Z,5.10
2018-01-14T01:22:05.599Z,5.10
2018-01-14T01:24:33.059Z,5.10
2018-01-14T01:27:00.487Z,5.00
2018-01-14T01:29:27.948Z,5.00
2018-01-14T01:31:55.410Z,4.90
2018-01-14T01:34:22.858Z,4.90
2018-01-14T01:36:50.439Z,4.90
2018-01-14T01:39:17.876Z,4.90
2018-01-14T01:41:45.364Z,4.90
2018-01-14T01:44:12.802Z,4.90
2018-01-14T01:46:40.240Z,4.90
2018-01-14T01:49:07.692Z,4.90
2018-01-14T01:51:35.270Z,4.80
2018-01-14T01:54:02.885Z,4.80
2018-01-14T01:56:30.329Z,4.80
2018-01-14T01:58:57.769Z,4.70
2018-01-14T02:01:25.230Z,4.70
2018-01-14T02:03:52.915Z,4.70
2018-01-14T02:06:20.329Z,4.70
2018-01-14T02:08:47.787Z,4.60
2018-01-14T02:11:15.227Z,4.60
2018-01-14T02:13:43.767Z,4.60
2018-01-14T02:16:11.180Z,4.60
2018-01-14T02:18:38.614Z,4.60
2018-01-14T02:21:06.067Z,4.60
2018-01-14T02:23:33.512Z,4.60
2018-01-14T02:26:00.964Z,4.60
2018-01-14T02:28:28.487Z,4.50
2018-01-14T02:30:55.914Z,4.50
2018-01-14T02:33:23.356Z,4.50
2018-01-14T02:35:50.799Z,4.50
2018-01-14T02:38:18.261Z,4.50
2018-01-14T02:40:45.720Z,4.50
2018-01-14T02:43:13.152Z,4.50
2018-01-14T02:45:40.618Z,4.50
2018-01-14T02:48:08.038Z,4.50
2018-01-14T02:50:35.513Z,4.50
2018-01-14T02:53:02.954Z,4.40
2018-01-14T02:55:30.392Z,4.40
2018-01-14T02:57:57.845Z,4.40
2018-01-14T03:00:25.283Z,4.40
2018-01-14T03:02:53.089Z,4.40
2018-01-14T03:05:20.523Z,4.30
2018-01-14T03:07:47.955Z,4.30
2018-01-14T03:10:15.417Z,4.30
2018-01-14T03:12:42.852Z,4.20
2018-01-14T03:15:10.323Z,4.20
2018-01-14T03:17:37.780Z,4.20
2018-01-14T03:20:08.045Z,4.20
2018-01-14T03:22:35.494Z,4.20
2018-01-14T03:25:03.148Z,4.20
2018-01-14T03:27:30.605Z,4.10
2018-01-14T03:29:58.070Z,4.10
2018-01-14T03:32:25.513Z,4.10
2018-01-14T03:34:52.985Z,4.10
2018-01-14T03:37:20.452Z,4.10
2018-01-14T03:39:47.893Z,4.10
2018-01-14T03:42:15.362Z,4.10
2018-01-14T03:44:42.830Z,4.10
2018-01-14T03:47:10.294Z,4.00
2018-01-14T03:49:37.755Z,4.00
2018-01-14T03:52:05.217Z,4.00
2018-01-14T03:54:32.668Z,4.00
2018-01-14T03:57:00.117Z,4.00
2018-01-14T03:59:27.572Z,4.00
2018-01-14T04:01:55.029Z,4.00
2018-01-14T04:04:22.481Z,4.00
2018-01-14T04:06:49.916Z,4.00
2018-01-14T04:09:17.360Z,3.90
2018-01-14T04:11:44.832Z,3.90
2018-01-14T04:14:12.285Z,3.90
2018-01-14T04:16:39.724Z,3.90
2018-01-14T04:19:07.178Z,3.80
2018-01-14T04:21:34.613Z,3.80
2018-01-14T04:24:02.060Z,3.80
2018-01-14T04:26:29.504Z,3.80
2018-01-14T04:28:56.957Z,3.80
2018-01-14T04:31:24.421Z,3.70
2018-01-14T04:33:51.890Z,3.70
2018-01-14T04:36:19.336Z,3.70
2018-01-14T04:38:46.790Z,3.60
2018-01-14T04:41:15.006Z,3.60
2018-01-14T04:43:42.445Z,3.60
2018-01-14T04:46:10.252Z,3.60
2018-01-14T04:48:37.690Z,3.60
2018-01-14T04:51:05.145Z,3.60
2018-01-14T04:53:32.589Z,3.60
2018-01-14T04:56:00.026Z,3.60
2018-01-14T04:58:27.476Z,3.60
2018-01-14T05:00:54.931Z,3.60
2018-01-14T05:03:22.383Z,3.60
2018-01-14T05:05:49.842Z,3.60
2018-01-14T05:08:17.291Z,3.60
2018-01-14T05:10:44.762Z,3.60
2018-01-14T05:13:12.206Z,3.50
2018-01-14T05:15:39.644Z,3.50
2018-01-14T05:18:07.068Z,3.50
2018-01-14T05:20:34.511Z,3.50
2018-01-14T05:23:01.987Z,3.50
2018-01-14T05:25:29.451Z,3.50
2018-01-14T05:27:56.919Z,3.50
2018-01-14T05:30:24.353Z,3.50
2018-01-14T05:32:51.801Z,3.40
2018-01-14T05:35:19.269Z,3.40
2018-01-14T05:37:46.748Z,3.40
2018-01-14T05:40:14.211Z,3.40
2018-01-14T05:42:41.661Z,3.40
2018-01-14T05:45:09.100Z,3.40
2018-01-14T05:47:36.556Z,3.40
2018-01-14T05:50:07.253Z,3.40
2018-01-14T05:52:34.684Z,3.40
2018-01-14T05:55:02.893Z,3.30
2018-01-14T05:57:30.344Z,3.30
2018-01-14T05:59:57.806Z,3.30
2018-01-14T06:02:26.011Z,3.30
2018-01-14T06:04:53.452Z,3.30
2018-01-14T06:07:20.911Z,3.30
2018-01-14T06:09:48.348Z,3.30
2018-01-14T06:12:15.792Z,3.30
2018-01-14T06:14:43.297Z,3.30
2018-01-14T06:17:10.733Z,3.30
2018-01-14T06:19:38.197Z,3.30
2018-01-14T06:22:05.636Z,3.30
2018-01-14T06:24:33.201Z,3.30
2018-01-14T06:27:00.649Z,3.20
2018-01-14T06:29:28.089Z,3.30
2018-01-14T06:31:55.553Z,3.30
2018-01-14T06:34:23.012Z,3.30
2018-01-14T06:36:50.465Z,3.30
2018-01-14T06:39:17.913Z,3.30
2018-01-14T06:41:45.353Z,3.30
2018-01-14T06:44:12.818Z,3.30
2018-01-14T06:46:40.260Z,3.30
2018-01-14T06:49:07.700Z,3.30
2018-01-14T06:51:35.325Z,3.30
2018-01-14T06:54:02.847Z,3.30
2018-01-14T06:56:30.308Z,3.30
2018-01-14T06:58:57.752Z,3.30
2018-01-14T07:01:25.196Z,3.20
2018-01-14T07:03:52.876Z,3.20
2018-01-14T07:06:20.351Z,3.20
2018-01-14T07:08:48.636Z,3.20
2018-01-14T07:11:16.292Z,3.20
2018-01-14T07:13:43.758Z,3.20
2018-01-14T07:16:11.212Z,3.20
2018-01-14T07:18:38.668Z,3.20
2018-01-14T07:21:06.129Z,3.20
2018-01-14T07:23:33.576Z,3.30
2018-01-14T07:26:01.018Z,3.30
2018-01-14T07:28:28.484Z,3.30
2018-01-14T07:30:55.920Z,3.30
2018-01-14T07:33:23.477Z,3.30
2018-01-14T07:35:50.936Z,3.30
2018-01-14T07:38:18.393Z,3.30
2018-01-14T07:40:45.847Z,3.20
2018-01-14T07:43:13.291Z,3.20
2018-01-14T07:45:40.748Z,3.20
2018-01-14T07:48:08.185Z,3.20
2018-01-14T07:50:35.774Z,3.20
2018-01-14T07:53:03.287Z,3.20
2018-01-14T07:55:30.680Z,3.20
2018-01-14T07:57:58.144Z,3.20
2018-01-14T08:00:25.581Z,3.30
2018-01-14T08:02:53.085Z,3.30
2018-01-14T08:05:20.541Z,3.30
2018-01-14T08:07:47.989Z,3.30
2018-01-14T08:10:15.430Z,3.30
2018-01-14T08:12:43.030Z,3.30
2018-01-14T08:15:10.472Z,3.30
2018-01-14T08:17:37.935Z,3.40
2018-01-14T08:20:10.236Z,3.40
2018-01-14T08:22:37.709Z,3.40
2018-01-14T08:25:05.162Z,3.40
2018-01-14T08:27:32.916Z,3.40
2018-01-14T08:30:00.369Z,3.40
2018-01-14T08:32:28.127Z,3.40
2018-01-14T08:34:55.561Z,3.40
2018-01-14T08:37:23.769Z,3.40
2018-01-14T08:39:51.522Z,3.40
2018-01-14T08:42:19.146Z,3.50
2018-01-14T08:44:46.516Z,3.50
2018-01-14T08:47:13.980Z,3.60
2018-01-14T08:49:41.430Z,3.60
2018-01-14T08:52:08.864Z,3.60
2018-01-14T08:54:36.321Z,3.70
2018-01-14T08:57:03.773Z,3.70
2018-01-14T08:59:31.240Z,3.70
2018-01-14T09:01:58.691Z,3.70
2018-01-14T09:04:26.153Z,3.80
2018-01-14T09:06:53.614Z,3.70
2018-01-14T09:09:21.052Z,3.80
2018-01-14T09:11:48.512Z,3.80
2018-01-14T09:14:15.971Z,3.80
2018-01-14T09:16:44.177Z,3.80
2018-01-14T09:19:11.637Z,3.80
2018-01-14T09:21:39.090Z,3.90
2018-01-14T09:24:06.539Z,3.90
2018-01-14T09:26:33.979Z,3.90
2018-01-14T09:29:01.421Z,3.90
2018-01-14T09:31:28.888Z,4.00
2018-01-14T09:33:56.354Z,4.00
2018-01-14T09:36:23.806Z,4.10
2018-01-14T09:38:51.242Z,4.00
2018-01-14T09:41:18.706Z,4.00
2018-01-14T09:43:46.161Z,4.10
2018-01-14T09:46:13.600Z,4.10
2018-01-14T09:48:41.055Z,4.10
2018-01-14T09:51:08.500Z,4.10
2018-01-14T09:53:36.034Z,4.20
2018-01-14T09:56:03.545Z,4.30
2018-01-14T09:58:31.047Z,4.20
2018-01-14T10:00:58.536Z,4.20
2018-01-14T10:03:25.973Z,4.20
2018-01-14T10:05:53.421Z,4.20
2018-01-14T10:08:20.876Z,4.20
2018-01-14T10:10:48.342Z,4.20
2018-01-14T10:13:15.940Z,4.20
2018-01-14T10:15:43.401Z,4.20
2018-01-14T10:18:10.834Z,4.20
2018-01-14T10:20:38.282Z,4.20
2018-01-14T10:23:05.724Z,4.30
2018-01-14T10:25:33.176Z,4.30
2018-01-14T10:28:00.624Z,4.30
2018-01-14T10:30:28.069Z,4.30
2018-01-14T10:32:55.520Z,4.40
2018-01-14T10:35:22.959Z,4.30
2018-01-14T10:37:50.413Z,4.40
2018-01-14T10:40:17.854Z,4.40
2018-01-14T10:42:45.327Z,4.50
2018-01-14T10:45:12.791Z,4.50
2018-01-14T10:47:40.232Z,4.70
2018-01-14T10:50:08.356Z,4.70
2018-01-14T10:52:35.793Z,4.70
2018-01-14T10:55:03.889Z,4.70
2018-01-14T10:57:31.344Z,4.80
2018-01-14T10:59:58.781Z,4.70
2018-01-14T11:02:26.229Z,4.80
2018-01-14T11:04:53.675Z,4.70
2018-01-14T11:07:21.270Z,4.80
2018-01-14T11:09:48.714Z,4.80
2018-01-14T11:12:16.187Z,4.70
2018-01-14T11:14:43.809Z,4.70
2018-01-14T11:17:11.252Z,4.70
2018-01-14T11:19:38.679Z,4.70
2018-01-14T11:22:06.138Z,4.80
2018-01-14T11:24:33.582Z,4.80
2018-01-14T11:27:01.049Z,4.90
2018-01-14T11:29:38.245Z,5.00
2018-01-14T11:32:05.732Z,5.00
2018-01-14T11:34:33.152Z,5.00
2018-01-14T11:37:00.596Z,5.00
2018-01-14T11:39:28.804Z,5.10
2018-01-14T11:41:56.271Z,5.00
2018-01-14T11:44:24.476Z,5.20
2018-01-14T11:46:52.168Z,5.10
2018-01-14T11:49:20.018Z,5.30
2018-01-14T11:51:48.634Z,5.30
2018-01-14T11:54:16.062Z,5.20
2018-01-14T11:56:43.534Z,5.20
2018-01-14T11:59:10.972Z,5.20
2018-01-14T12:01:38.427Z,5.20
2018-01-14T12:04:05.876Z,5.30
2018-01-14T12:06:33.308Z,5.30
2018-01-14T12:09:00.766Z,5.40
2018-01-14T12:11:28.213Z,5.40
2018-01-14T12:13:55.713Z,5.50
2018-01-14T12:16:23.161Z,5.50
2018-01-14T12:18:50.606Z,5.50
2018-01-14T12:21:18.044Z,5.50
2018-01-14T12:23:45.505Z,5.60
2018-01-14T12:26:12.939Z,5.70
2018-01-14T12:28:40.401Z,6.00
2018-01-14T12:31:07.894Z,7.10
2018-01-14T12:36:31.816Z,10.60
2018-01-14T12:38:59.268Z,12.00
2018-01-14T12:41:26.720Z,13.00
2018-01-14T12:43:54.291Z,13.10
2018-01-14T12:46:21.749Z,12.80
2018-01-14T12:48:49.184Z,12.40
2018-01-14T12:51:16.652Z,11.50
2018-01-14T12:53:44.181Z,10.60
2018-01-14T12:56:11.613Z,9.90
2018-01-14T12:58:39.062Z,9.40
2018-01-14T13:01:06.500Z,8.90
2018-01-14T13:03:33.949Z,8.50
2018-01-14T13:06:01.386Z,8.20
2018-01-14T13:08:28.831Z,8.00
2018-01-14T13:10:57.048Z,7.70
2018-01-14T13:13:24.493Z,7.60
2018-01-14T13:15:51.957Z,7.40
2018-01-14T13:18:19.397Z,7.20
2018-01-14T13:20:46.829Z,7.00
2018-01-14T13:23:14.298Z,6.90
2018-01-14T13:25:41.747Z,6.90
2018-01-14T13:28:09.202Z,6.80
2018-01-14T13:30:36.661Z,6.90
2018-01-14T13:33:04.112Z,6.90
2018-01-14T13:35:31.573Z,6.80
2018-01-14T13:37:59.017Z,6.80
2018-01-14T13:40:26.475Z,6.90
2018-01-14T13:42:53.942Z,6.90
2018-01-14T13:45:21.382Z,7.00
2018-01-14T13:47:48.826Z,7.10
2018-01-14T13:50:16.293Z,7.20
2018-01-14T13:52:43.734Z,7.30
2018-01-14T13:55:11.184Z,7.30
2018-01-14T13:57:38.612Z,7.40
2018-01-14T14:00:06.068Z,7.40
2018-01-14T14:02:33.514Z,7.40
2018-01-14T14:05:00.952Z,7.40
2018-01-14T14:07:29.166Z,7.40
2018-01-14T14:09:57.737Z,7.30
2018-01-14T14:12:25.952Z,7.40
2018-01-14T14:14:53.385Z,7.30
2018-01-14T14:17:20.832Z,7.30
2018-01-14T14:19:48.270Z,7.30
2018-01-14T14:22:15.720Z,7.30
2018-01-14T14:24:43.176Z,7.20
2018-01-14T14:27:10.608Z,7.10
2018-01-14T14:29:38.050Z,7.10
2018-01-14T14:32:05.488Z,7.10
2018-01-14T14:34:33.123Z,7.10
2018-01-14T14:37:00.577Z,7.10
2018-01-14T14:39:28.037Z,6.90
2018-01-14T14:41:55.482Z,6.80
2018-01-14T14:44:22.988Z,6.60
2018-01-14T14:46:50.381Z,6.50
2018-01-14T14:49:17.841Z,6.40
2018-01-14T14:51:45.272Z,6.40
2018-01-14T14:54:13.493Z,6.20
2018-01-14T14:56:40.947Z,6.20
2018-01-14T14:59:08.371Z,6.20
2018-01-14T15:01:36.604Z,6.10
2018-01-14T15:04:04.044Z,6.10
2018-01-14T15:06:31.485Z,6.10
2018-01-14T15:08:58.933Z,6.10
2018-01-14T15:11:26.368Z,6.10
2018-01-14T15:13:53.842Z,6.10
2018-01-14T15:16:21.277Z,6.10
2018-01-14T15:18:48.858Z,6.10
2018-01-14T15:21:16.309Z,6.00
2018-01-14T15:23:43.765Z,6.00
2018-01-14T15:26:11.214Z,5.90
2018-01-14T15:28:38.691Z,5.90
2018-01-14T15:31:06.120Z,5.90
2018-01-14T15:33:33.560Z,5.90
2018-01-14T15:36:01.016Z,5.80
2018-01-14T15:38:28.472Z,5.80
2018-01-14T15:40:56.689Z,5.80
2018-01-14T15:43:24.136Z,5.70
2018-01-14T15:45:51.589Z,5.70
2018-01-14T15:48:19.026Z,5.70
2018-01-14T15:50:46.481Z,5.70
2018-01-14T15:53:13.923Z,5.70
2018-01-14T15:55:41.368Z,5.70
2018-01-14T15:58:08.829Z,5.70
2018-01-14T16:00:36.264Z,5.60
2018-01-14T16:03:03.724Z,5.60
2018-01-14T16:05:31.165Z,5.60
2018-01-14T16:07:58.627Z,5.60
2018-01-14T16:10:26.084Z,5.60
2018-01-14T16:12:53.521Z,5.60
2018-01-14T16:15:20.971Z,5.50
2018-01-14T16:17:48.404Z,5.50
2018-01-14T16:20:15.856Z,5.50
2018-01-14T16:22:43.308Z,5.50
2018-01-14T16:25:10.740Z,5.40
2018-01-14T16:27:38.192Z,5.40
2018-01-14T16:30:05.642Z,5.40
2018-01-14T16:32:33.077Z,5.30
2018-01-14T16:35:00.533Z,5.30
2018-01-14T16:37:27.984Z,5.20
2018-01-14T16:39:58.837Z,5.00
2018-01-14T16:42:27.022Z,4.90
2018-01-14T16:44:54.455Z,4.80
2018-01-14T16:47:21.919Z,4.80
2018-01-14T16:49:49.405Z,4.70
2018-01-14T16:52:16.809Z,4.60
2018-01-14T16:54:44.235Z,4.60
2018-01-14T16:57:11.673Z,4.50
2018-01-14T16:59:39.121Z,4.40
2018-01-14T17:02:06.567Z,4.40
2018-01-14T17:04:35.536Z,4.20
2018-01-14T17:07:02.989Z,4.20
2018-01-14T17:09:30.441Z,4.20
2018-01-14T17:11:57.900Z,4.10
2018-01-14T17:14:25.338Z,4.00
2018-01-14T17:16:52.797Z,4.00
2018-01-14T17:19:20.249Z,3.90
2018-01-14T17:21:48.477Z,3.80
2018-01-14T17:24:15.921Z,3.70
2018-01-14T17:26:43.368Z,3.80
2018-01-14T17:29:10.828Z,3.70
2018-01-14T17:31:38.259Z,3.60
2018-01-14T17:34:06.465Z,3.50
2018-01-14T17:36:33.933Z,3.50
2018-01-14T17:39:01.372Z,3.50
2018-01-14T17:41:28.816Z,3.40
2018-01-14T17:43:56.246Z,3.40
2018-01-14T17:46:23.677Z,3.40
2018-01-14T17:48:51.125Z,3.30
2018-01-14T17:51:18.572Z,3.30
2018-01-14T17:53:46.036Z,3.30
2018-01-14T17:56:19.792Z,3.20
2018-01-14T17:58:47.228Z,3.20
2018-01-14T18:01:14.665Z,3.20
2018-01-14T18:03:42.091Z,3.10
2018-01-14T18:06:09.552Z,3.10
2018-01-14T18:08:36.993Z,3.10
2018-01-14T18:11:04.451Z,3.10
2018-01-14T18:13:31.903Z,3.00
2018-01-14T18:15:59.354Z,3.00
2018-01-14T18:18:27.573Z,3.00
2018-01-14T18:20:55.018Z,2.90
2018-01-14T18:23:22.465Z,3.00
2018-01-14T18:25:49.932Z,3.00
2018-01-14T18:28:17.389Z,2.90
2018-01-14T18:30:44.845Z,2.90
2018-01-14T18:33:12.292Z,2.90
2018-01-14T18:35:39.730Z,2.90
2018-01-14T18:38:07.172Z,2.90
2018-01-14T18:40:34.617Z,2.90
2018-01-14T18:43:02.078Z,2.90
2018-01-14T18:45:41.185Z,2.80
2018-01-14T18:48:08.636Z,2.80
2018-01-14T18:50:36.081Z,2.90
2018-01-14T18:53:03.528Z,2.80
2018-01-14T18:55:31.749Z,2.80
2018-01-14T18:57:59.180Z,2.80
2018-01-14T19:00:26.637Z,2.80
2018-01-14T19:02:54.079Z,2.80
2018-01-14T19:05:21.520Z,2.90
2018-01-14T19:07:48.980Z,2.90
2018-01-14T19:10:16.424Z,2.90
2018-01-14T19:12:43.890Z,2.90
2018-01-14T19:15:11.324Z,2.90
2018-01-14T19:17:38.769Z,2.90
2018-01-14T19:20:06.220Z,2.90
2018-01-14T19:22:34.068Z,2.90
2018-01-14T19:25:03.354Z,2.80
2018-01-14T19:27:30.792Z,2.80
2018-01-14T19:29:58.244Z,2.80
2018-01-14T19:32:25.700Z,2.80
2018-01-14T19:34:53.146Z,2.80
2018-01-14T19:37:21.368Z,2.70
2018-01-14T19:39:48.813Z,2.60
2018-01-14T19:42:16.240Z,2.70
2018-01-14T19:44:43.715Z,2.70
2018-01-14T19:47:11.153Z,2.60
2018-01-14T19:49:39.113Z,2.60
2018-01-14T19:52:06.558Z,2.50
2018-01-14T19:54:34.043Z,2.50
2018-01-14T19:57:01.461Z,2.50
2018-01-14T19:59:28.901Z,2.50
2018-01-14T20:01:56.662Z,2.50
2018-01-14T20:04:24.258Z,2.50
2018-01-14T20:06:51.705Z,2.60
2018-01-14T20:09:19.947Z,2.60
2018-01-14T20:11:47.562Z,2.60
2018-01-14T20:14:15.017Z,2.60
2018-01-14T20:16:42.447Z,2.70
2018-01-14T20:19:10.604Z,2.70
2018-01-14T20:21:38.073Z,2.60
2018-01-14T20:24:05.518Z,2.60
2018-01-14T20:26:33.489Z,2.60
2018-01-14T20:29:00.939Z,2.50
2018-01-14T20:31:28.399Z,2.40
2018-01-14T20:33:55.838Z,2.40
2018-01-14T20:36:23.281Z,2.40
2018-01-14T20:38:50.770Z,2.40
2018-01-14T20:41:18.202Z,2.30
2018-01-14T20:43:46.410Z,2.30
2018-01-14T20:46:13.866Z,2.30
2018-01-14T20:48:41.313Z,2.30
2018-01-14T20:51:08.768Z,2.30
2018-01-14T20:53:36.222Z,2.30
2018-01-14T20:56:04.420Z,2.30
2018-01-14T20:58:31.876Z,2.20
2018-01-14T21:00:59.323Z,2.30
2018-01-14T21:03:27.556Z,2.20
2018-01-14T21:05:55.010Z,2.20
2018-01-14T21:08:22.444Z,2.20
2018-01-14T21:10:49.893Z,2.20
2018-01-14T21:13:18.107Z,2.20
2018-01-14T21:15:45.893Z,2.10
2018-01-14T21:18:13.338Z,2.20
2018-01-14T21:20:40.825Z,2.20
2018-01-14T21:23:08.311Z,2.10
2018-01-14T21:25:35.757Z,2.20
2018-01-14T21:28:03.244Z,2.10
2018-01-14T21:30:30.690Z,2.00
2018-01-14T21:32:58.132Z,2.00
2018-01-14T21:35:25.585Z,1.90
2018-01-14T21:37:53.037Z,1.90
2018-01-14T21:40:21.320Z,1.90
2018-01-14T21:42:48.757Z,1.90
2018-01-14T21:45:16.204Z,1.90
2018-01-14T21:47:43.684Z,1.90
2018-01-14T21:50:11.125Z,1.90
2018-01-14T21:52:43.866Z,1.90
2018-01-14T21:55:11.305Z,1.90
2018-01-14T21:57:38.745Z,1.90
2018-01-14T22:00:06.197Z,1.90
2018-01-14T22:02:33.648Z,1.90
2018-01-14T22:05:01.464Z,1.90
2018-01-14T22:07:28.919Z,1.90
2018-01-14T22:09:58.992Z,1.90
2018-01-14T22:12:26.433Z,1.70
2018-01-14T22:14:53.897Z,1.80
2018-01-14T22:17:21.359Z,1.80
2018-01-14T22:19:48.816Z,1.80
2018-01-14T22:22:16.269Z,1.70
2018-01-14T22:24:43.732Z,1.70
2018-01-14T22:27:11.164Z,1.60
2018-01-14T22:29:38.628Z,1.60
2018-01-14T22:32:06.061Z,1.50
2018-01-14T22:34:33.500Z,1.50
2018-01-14T22:37:01.025Z,1.50
2018-01-14T22:39:28.466Z,1.50
2018-01-14T22:41:55.932Z,1.50
2018-01-14T22:44:23.396Z,1.50
2018-01-14T22:46:50.867Z,1.50
2018-01-14T22:49:18.319Z,1.50
2018-01-14T22:51:45.754Z,1.50
2018-01-14T22:54:13.689Z,1.50
2018-01-14T22:56:41.188Z,1.50
2018-01-14T22:59:08.636Z,1.50
2018-01-14T23:01:36.093Z,1.50
2018-01-14T23:04:03.539Z,1.50
2018-01-14T23:06:31.582Z,1.40
2018-01-14T23:08:59.065Z,1.40
2018-01-14T23:11:26.727Z,1.40
2018-01-14T23:13:54.326Z,1.40
2018-01-14T23:16:22.545Z,1.40
2018-01-14T23:18:49.992Z,1.40
2018-01-14T23:21:17.432Z,1.40
2018-01-14T23:23:44.902Z,1.40
2018-01-14T23:26:12.368Z,1.30
2018-01-14T23:28:39.798Z,1.30
2018-01-14T23:31:07.239Z,1.30
2018-01-14T23:33:34.692Z,1.40
2018-01-14T23:36:02.128Z,1.40
2018-01-14T23:38:29.578Z,1.40
2018-01-14T23:40:57.017Z,1.30
2018-01-14T23:43:25.230Z,1.30
2018-01-14T23:45:52.681Z,1.20
2018-01-14T23:48:20.141Z,1.30
2018-01-14T23:50:47.609Z,1.30
2018-01-14T23:53:15.042Z,1.20
2018-01-14T23:55:42.485Z,1.20
2018-01-14T23:58:09.921Z,1.20
